Time;durP1;ratioP1;P1;durP2;ratioP2;P2;SDS_P1;SDS_P2;PMS_P1;PMS_P2;Temp;Humidity;BMP_temperature;BMP_pressure;BME280_temperature;BME280_humidity;BME280_pressure;Samples;Min_cycle;Max_cycle;Signal;HPM_P1;HPM_P2
2023/11/04 00:02:15;;;;;;;4.27;3.80;;;8.80;99.90;;;;;;5032741;28;20449;-73
2023/11/04 00:05:00;;;;;;;8.27;3.97;;;8.70;99.90;;;;;;5041438;28;20457;-73
2023/11/04 00:07:46;;;;;;;7.73;3.37;;;8.70;99.90;;;;;;5030043;28;20460;-72
2023/11/04 00:10:32;;;;;;;7.10;2.90;;;8.70;99.90;;;;;;5033139;28;20439;-73
2023/11/04 00:13:17;;;;;;;3.70;2.30;;;8.60;99.90;;;;;;5029795;28;20457;-72
2023/11/04 00:16:08;;;;;;;4.13;2.20;;;8.50;99.90;;;;;;5036088;28;20479;-72
2023/11/04 00:18:55;;;;;;;6.40;2.80;;;8.40;99.90;;;;;;5040212;28;20495;-74
2023/11/04 00:21:41;;;;;;;6.30;2.33;;;8.50;99.90;;;;;;5034435;28;20650;-73
2023/11/04 00:24:27;;;;;;;4.57;2.97;;;8.50;99.90;;;;;;5034323;28;20818;-73
2023/11/04 00:27:13;;;;;;;5.00;2.50;;;8.60;99.90;;;;;;5029367;28;20453;-73
2023/11/04 00:29:58;;;;;;;6.43;2.80;;;8.60;99.90;;;;;;5041921;28;20444;-73
2023/11/04 00:32:44;;;;;;;3.40;2.00;;;8.60;99.90;;;;;;5045944;28;20436;-72
2023/11/04 00:35:31;;;;;;;4.70;2.33;;;8.60;99.90;;;;;;5041424;28;20527;-72
2023/11/04 00:38:17;;;;;;;10.03;3.00;;;8.60;99.90;;;;;;5038383;28;20471;-74
2023/11/04 00:41:05;;;;;;;3.70;2.50;;;8.60;99.90;;;;;;5035815;28;20544;-74
2023/11/04 00:43:51;;;;;;;3.53;2.43;;;8.50;99.90;;;;;;5041690;28;20445;-73
2023/11/04 00:46:38;;;;;;;5.37;3.00;;;8.60;99.90;;;;;;5036570;28;20477;-73
2023/11/04 00:49:24;;;;;;;4.57;2.43;;;8.60;99.90;;;;;;5039233;28;20439;-73
2023/11/04 00:52:11;;;;;;;5.80;2.53;;;8.40;99.90;;;;;;5026953;28;20459;-75
2023/11/04 00:54:56;;;;;;;4.53;2.67;;;8.50;99.90;;;;;;5033358;28;20454;-72
2023/11/04 00:57:42;;;;;;;4.50;2.77;;;8.40;99.90;;;;;;5037583;28;20913;-72
2023/11/04 01:00:29;;;;;;;4.90;2.40;;;8.60;99.90;;;;;;5035725;28;20452;-73
2023/11/04 01:03:15;;;;;;;6.23;2.30;;;8.60;99.90;;;;;;5049934;28;20444;-73
2023/11/04 01:06:00;;;;;;;4.90;2.00;;;8.70;99.90;;;;;;5042302;28;21070;-73
2023/11/04 01:08:48;;;;;;;5.53;1.67;;;8.70;99.90;;;;;;5046569;28;20968;-72
2023/11/04 01:11:33;;;;;;;3.63;1.73;;;8.70;99.90;;;;;;5033218;28;21030;-73
2023/11/04 01:14:19;;;;;;;4.90;1.87;;;8.70;99.90;;;;;;5032881;28;20445;-74
2023/11/04 01:17:05;;;;;;;3.27;1.80;;;8.70;99.90;;;;;;5049272;28;20487;-72
2023/11/04 01:19:50;;;;;;;3.40;1.60;;;8.80;99.90;;;;;;5043171;28;20417;-74
2023/11/04 01:22:36;;;;;;;2.30;1.60;;;8.90;99.90;;;;;;5038791;28;20592;-72
2023/11/04 01:25:23;;;;;;;5.90;1.67;;;8.90;99.90;;;;;;5033541;28;20616;-73
2023/11/04 01:28:09;;;;;;;2.77;1.47;;;9.00;99.90;;;;;;5037801;28;20865;-73
2023/11/04 01:30:55;;;;;;;2.50;1.43;;;9.00;99.90;;;;;;5041239;28;20481;-73
2023/11/04 01:33:40;;;;;;;1.90;1.30;;;9.00;99.90;;;;;;5042127;28;20433;-73
2023/11/04 01:36:27;;;;;;;3.60;1.70;;;9.10;99.90;;;;;;5038444;28;20596;-73
2023/11/04 01:39:14;;;;;;;3.93;1.70;;;9.10;99.90;;;;;;5034664;28;20805;-73
2023/11/04 01:42:06;;;;;;;3.07;1.93;;;9.10;99.90;;;;;;5045018;28;20586;-73
2023/11/04 01:44:52;;;;;;;3.07;1.90;;;9.10;99.90;;;;;;5039656;28;20428;-72
2023/11/04 01:47:39;;;;;;;3.07;1.70;;;9.20;99.90;;;;;;5041361;28;20434;-73
2023/11/04 01:50:25;;;;;;;2.90;1.43;;;9.20;99.90;;;;;;5041637;28;20496;-73
2023/11/04 01:53:10;;;;;;;2.10;1.17;;;9.10;99.90;;;;;;5039209;28;20431;-72
2023/11/04 01:55:56;;;;;;;4.97;1.40;;;9.10;99.90;;;;;;5039366;28;20528;-73
2023/11/04 01:58:46;;;;;;;3.90;1.57;;;9.20;99.90;;;;;;5041912;28;21039;-73
2023/11/04 02:01:34;;;;;;;2.97;1.87;;;9.20;99.90;;;;;;5038776;28;20504;-73
2023/11/04 02:04:20;;;;;;;2.07;1.33;;;9.10;99.90;;;;;;5039639;28;20940;-73
2023/11/04 02:07:07;;;;;;;2.43;1.30;;;9.20;99.90;;;;;;5039788;28;20866;-72
2023/11/04 02:09:52;;;;;;;4.27;1.43;;;9.20;99.90;;;;;;5041616;28;20429;-73
2023/11/04 02:12:38;;;;;;;3.63;1.70;;;9.20;99.90;;;;;;5042891;28;20501;-73
2023/11/04 02:15:25;;;;;;;2.37;1.43;;;9.20;99.90;;;;;;5033351;28;20455;-73
2023/11/04 02:18:11;;;;;;;2.90;1.40;;;9.20;99.90;;;;;;5036356;28;20475;-74
2023/11/04 02:20:59;;;;;;;1.90;1.30;;;9.10;99.90;;;;;;5039219;28;20560;-72
2023/11/04 02:23:45;;;;;;;2.30;1.40;;;9.10;99.90;;;;;;5042447;28;20433;-73
2023/11/04 02:26:31;;;;;;;1.90;1.20;;;9.10;99.90;;;;;;5038656;28;20453;-74
2023/11/04 02:29:16;;;;;;;2.97;1.40;;;9.10;99.90;;;;;;5035099;28;20395;-73
2023/11/04 02:32:02;;;;;;;2.97;1.50;;;9.00;99.90;;;;;;5039199;28;20795;-72
2023/11/04 02:34:48;;;;;;;4.13;1.50;;;9.00;99.90;;;;;;5039432;28;20503;-72
2023/11/04 02:37:35;;;;;;;2.73;1.60;;;9.10;99.90;;;;;;5039083;28;20443;-73
2023/11/04 02:40:21;;;;;;;2.80;1.40;;;9.10;99.90;;;;;;5035755;28;20791;-72
2023/11/04 02:43:07;;;;;;;3.13;1.80;;;9.10;99.90;;;;;;5037203;28;20403;-72
2023/11/04 02:45:52;;;;;;;2.63;1.60;;;9.10;99.90;;;;;;5030959;28;20482;-72
2023/11/04 02:48:38;;;;;;;2.90;2.00;;;9.20;99.90;;;;;;5031622;28;21242;-73
2023/11/04 02:51:24;;;;;;;2.40;1.47;;;9.10;99.90;;;;;;5030978;28;21046;-72
2023/11/04 02:54:11;;;;;;;2.13;1.40;;;9.10;99.90;;;;;;5037568;28;20458;-73
2023/11/04 02:56:56;;;;;;;2.53;1.57;;;9.10;99.90;;;;;;5031272;28;20548;-73
2023/11/04 02:59:42;;;;;;;2.53;1.40;;;9.10;99.90;;;;;;5039914;28;20452;-73
2023/11/04 03:02:28;;;;;;;2.30;1.33;;;9.10;99.90;;;;;;5042137;28;20463;-72
2023/11/04 03:05:15;;;;;;;2.63;1.30;;;9.00;99.90;;;;;;5039251;28;20458;-74
2023/11/04 03:08:00;;;;;;;2.97;1.60;;;9.00;99.90;;;;;;5037825;28;20436;-74
2023/11/04 03:10:48;;;;;;;3.60;1.50;;;8.90;99.90;;;;;;5041321;28;20518;-74
2023/11/04 03:13:34;;;;;;;3.20;1.53;;;8.90;99.90;;;;;;5031782;28;20864;-74
2023/11/04 03:16:20;;;;;;;3.10;1.63;;;8.90;99.90;;;;;;5035212;28;20554;-74
2023/11/04 03:19:06;;;;;;;4.10;1.60;;;8.90;99.90;;;;;;5038235;28;20613;-74
2023/11/04 03:21:52;;;;;;;2.63;1.37;;;8.90;99.90;;;;;;5036553;28;20433;-74
2023/11/04 03:24:37;;;;;;;4.87;1.40;;;9.00;99.90;;;;;;5032468;28;20445;-74
2023/11/04 03:27:24;;;;;;;3.63;1.40;;;9.00;99.90;;;;;;5039495;28;20532;-74
2023/11/04 03:30:11;;;;;;;2.00;1.30;;;9.00;99.90;;;;;;5037919;28;20963;-74
2023/11/04 03:32:56;;;;;;;3.73;1.50;;;9.10;99.90;;;;;;5042439;28;20444;-74
2023/11/04 03:35:42;;;;;;;1.90;1.10;;;9.10;99.90;;;;;;5038172;28;20458;-74
2023/11/04 03:38:27;;;;;;;2.80;1.40;;;9.10;99.90;;;;;;5035224;28;20482;-74
2023/11/04 03:41:13;;;;;;;2.10;1.20;;;9.00;99.90;;;;;;5035012;28;20436;-74
2023/11/04 03:44:00;;;;;;;1.80;1.13;;;9.10;99.90;;;;;;5028791;28;20456;-74
2023/11/04 03:46:46;;;;;;;2.03;0.80;;;9.10;99.90;;;;;;5031021;28;20598;-74
2023/11/04 03:49:32;;;;;;;2.90;1.40;;;9.10;99.90;;;;;;5033613;28;20916;-74
2023/11/04 03:52:17;;;;;;;4.00;1.20;;;9.10;99.90;;;;;;5037842;28;20444;-74
2023/11/04 03:55:03;;;;;;;2.13;1.10;;;9.20;99.90;;;;;;5036810;28;20541;-74
2023/11/04 03:57:49;;;;;;;3.53;1.30;;;9.10;99.90;;;;;;5037872;28;20801;-74
2023/11/04 04:00:36;;;;;;;1.90;1.20;;;9.10;99.90;;;;;;5035800;28;20419;-74
2023/11/04 04:03:21;;;;;;;1.50;0.93;;;9.00;99.90;;;;;;5037202;28;20444;-74
2023/11/04 04:06:08;;;;;;;1.90;1.10;;;9.10;99.90;;;;;;5033423;28;20464;-74
2023/11/04 04:08:53;;;;;;;1.67;1.00;;;9.10;99.90;;;;;;5037230;28;21100;-74
2023/11/04 04:11:39;;;;;;;2.57;1.10;;;9.20;99.90;;;;;;5028763;28;21033;-74
2023/11/04 04:14:25;;;;;;;2.50;1.40;;;9.20;99.90;;;;;;5034974;28;20446;-74
2023/11/04 04:17:12;;;;;;;3.83;1.83;;;9.20;99.90;;;;;;5037518;28;21023;-74
2023/11/04 04:19:58;;;;;;;3.03;1.10;;;9.10;99.90;;;;;;5037225;28;20440;-74
2023/11/04 04:22:43;;;;;;;2.90;1.37;;;9.10;99.90;;;;;;5035939;28;20497;-74
2023/11/04 04:25:29;;;;;;;2.40;1.70;;;9.10;99.90;;;;;;5027558;28;20835;-74
2023/11/04 04:28:15;;;;;;;1.87;1.17;;;9.00;99.90;;;;;;5038135;28;20570;-74
2023/11/04 04:31:01;;;;;;;3.23;1.10;;;9.10;99.90;;;;;;5032558;28;20453;-74
2023/11/04 04:33:48;;;;;;;2.73;1.30;;;9.00;99.90;;;;;;5034635;28;20498;-74
2023/11/04 04:36:33;;;;;;;3.07;1.30;;;9.00;99.90;;;;;;5030395;28;20503;-74
2023/11/04 04:39:19;;;;;;;2.27;1.10;;;9.00;99.90;;;;;;5038172;28;20473;-74
2023/11/04 04:42:06;;;;;;;4.50;1.50;;;9.00;99.90;;;;;;5031126;28;20444;-74
2023/11/04 04:44:51;;;;;;;2.13;1.20;;;9.10;99.90;;;;;;5034707;28;20546;-74
2023/11/04 04:47:38;;;;;;;2.03;1.00;;;9.10;99.90;;;;;;5035052;28;20453;-74
2023/11/04 04:50:25;;;;;;;3.60;1.20;;;9.10;99.90;;;;;;5037859;28;20626;-74
2023/11/04 04:53:11;;;;;;;2.07;1.10;;;9.00;99.90;;;;;;5040216;28;20484;-74
2023/11/04 04:55:57;;;;;;;2.50;1.37;;;9.10;99.90;;;;;;5028524;28;20521;-74
2023/11/04 04:58:42;;;;;;;2.07;1.20;;;9.10;99.90;;;;;;5032989;28;20554;-74
2023/11/04 05:01:30;;;;;;;5.27;1.30;;;9.10;99.90;;;;;;5031060;28;20669;-74
2023/11/04 05:04:16;;;;;;;3.57;1.40;;;9.00;99.90;;;;;;5033763;28;20833;-74
2023/11/04 05:07:03;;;;;;;3.37;1.47;;;9.00;99.90;;;;;;5028859;28;20457;-74
2023/11/04 05:09:49;;;;;;;2.73;1.30;;;8.90;99.90;;;;;;5038538;28;20517;-74
2023/11/04 05:12:35;;;;;;;1.80;1.00;;;8.90;99.90;;;;;;5031737;28;20960;-74
2023/11/04 05:15:20;;;;;;;1.80;1.20;;;9.00;99.90;;;;;;5032214;28;20518;-74
2023/11/04 05:18:06;;;;;;;2.90;1.47;;;9.00;99.90;;;;;;5033425;28;21045;-74
2023/11/04 05:20:52;;;;;;;2.10;1.10;;;8.90;99.90;;;;;;5035996;28;20447;-74
2023/11/04 05:23:40;;;;;;;1.90;0.73;;;8.90;99.90;;;;;;5032656;28;20572;-74
2023/11/04 05:26:26;;;;;;;1.50;0.90;;;9.00;99.90;;;;;;5040379;28;20481;-74
2023/11/04 05:29:11;;;;;;;1.73;0.90;;;8.90;99.90;;;;;;5040535;28;20517;-74
2023/11/04 05:31:57;;;;;;;2.30;1.20;;;8.90;99.90;;;;;;5028996;28;20483;-74
2023/11/04 05:34:44;;;;;;;2.00;1.07;;;8.90;99.90;;;;;;5026702;28;20505;-74
2023/11/04 05:37:30;;;;;;;3.40;1.10;;;9.00;99.90;;;;;;5057485;23;20485;-75
2023/11/04 05:40:17;;;;;;;2.10;1.10;;;9.00;99.90;;;;;;5044760;28;20564;-75
2023/11/04 05:43:03;;;;;;;1.90;1.13;;;8.90;99.90;;;;;;5047170;28;20481;-75
2023/11/04 05:45:49;;;;;;;2.23;1.10;;;9.00;99.90;;;;;;5050476;28;21061;-73
2023/11/04 05:48:35;;;;;;;1.93;1.00;;;9.00;99.90;;;;;;5064187;28;20594;-73
2023/11/04 05:51:25;;;;;;;1.83;1.03;;;9.00;99.90;;;;;;5070625;28;20502;-74
2023/11/04 05:54:11;;;;;;;2.43;0.83;;;9.10;99.90;;;;;;5064412;28;20506;-72
2023/11/04 05:56:58;;;;;;;2.13;0.90;;;9.20;99.90;;;;;;5067237;28;20602;-72
2023/11/04 05:59:44;;;;;;;3.63;1.13;;;9.20;99.90;;;;;;5069976;28;20543;-72
2023/11/04 06:02:30;;;;;;;3.63;1.10;;;9.20;99.90;;;;;;5072140;28;20977;-72
2023/11/04 06:05:16;;;;;;;3.57;1.13;;;9.20;99.90;;;;;;5070224;28;20963;-71
2023/11/04 06:08:03;;;;;;;2.17;1.00;;;9.20;99.90;;;;;;5075500;28;20456;-70
2023/11/04 06:10:48;;;;;;;2.73;1.00;;;9.30;99.90;;;;;;5063623;28;20455;-72
2023/11/04 06:13:35;;;;;;;2.03;1.03;;;9.30;99.90;;;;;;5066086;28;20960;-72
2023/11/04 06:16:21;;;;;;;3.73;1.10;;;9.30;99.90;;;;;;5066488;28;20479;-72
2023/11/04 06:19:06;;;;;;;2.37;1.20;;;9.30;99.90;;;;;;5066011;28;21059;-72
2023/11/04 06:21:53;;;;;;;2.87;1.10;;;9.30;99.90;;;;;;5065191;28;20409;-72
2023/11/04 06:24:39;;;;;;;1.87;0.93;;;9.40;99.90;;;;;;5066369;28;20467;-72
2023/11/04 06:27:25;;;;;;;2.37;0.90;;;9.20;99.90;;;;;;5058336;28;20465;-72
2023/11/04 06:30:13;;;;;;;2.47;0.90;;;9.20;99.90;;;;;;5066876;28;20801;-72
2023/11/04 06:32:58;;;;;;;2.33;1.03;;;9.20;99.90;;;;;;5067240;28;20435;-71
2023/11/04 06:35:44;;;;;;;1.70;0.90;;;9.20;99.90;;;;;;5066778;28;20565;-72
2023/11/04 06:38:30;;;;;;;8.53;0.90;;;9.20;99.90;;;;;;5068921;28;21008;-72
2023/11/04 06:41:17;;;;;;;3.03;1.00;;;9.20;99.90;;;;;;5063855;28;20451;-72
2023/11/04 06:44:03;;;;;;;2.53;0.93;;;9.20;99.90;;;;;;5065992;28;20445;-72
2023/11/04 06:46:52;;;;;;;6.97;1.10;;;9.20;99.90;;;;;;5066450;28;20587;-71
2023/11/04 06:49:37;;;;;;;2.00;1.00;;;9.20;99.90;;;;;;5067626;28;20817;-72
2023/11/04 06:52:23;;;;;;;3.33;1.17;;;9.20;99.90;;;;;;5075384;28;20427;-72
2023/11/04 06:55:09;;;;;;;2.23;1.07;;;9.20;99.90;;;;;;5074929;28;20500;-72
2023/11/04 06:57:55;;;;;;;6.93;0.97;;;9.30;99.90;;;;;;5067756;28;20470;-72
2023/11/04 07:00:41;;;;;;;1.70;0.80;;;9.30;99.90;;;;;;5068991;28;20530;-71
2023/11/04 07:03:29;;;;;;;1.70;1.00;;;9.30;99.90;;;;;;5067718;28;20441;-72
2023/11/04 07:06:15;;;;;;;3.27;1.17;;;9.40;99.90;;;;;;5070901;28;20974;-71
2023/11/04 07:09:01;;;;;;;3.20;1.20;;;9.40;99.90;;;;;;5065653;28;20440;-72
2023/11/04 07:11:46;;;;;;;1.50;0.90;;;9.40;99.90;;;;;;5077049;28;20455;-72
2023/11/04 07:14:32;;;;;;;1.60;0.90;;;9.30;99.90;;;;;;5066281;28;20443;-72
2023/11/04 07:17:18;;;;;;;2.30;1.20;;;9.40;99.90;;;;;;5074340;28;20598;-71
2023/11/04 07:20:08;;;;;;;4.33;1.10;;;9.50;99.90;;;;;;5068787;28;20509;-72
2023/11/04 07:22:54;;;;;;;3.90;1.10;;;9.50;99.90;;;;;;5072939;28;20442;-72
2023/11/04 07:25:40;;;;;;;3.43;1.40;;;9.60;99.90;;;;;;5074945;28;20488;-72
2023/11/04 07:28:34;;;;;;;2.80;1.10;;;9.60;99.90;;;;;;5074479;28;20479;-72
2023/11/04 07:31:19;;;;;;;3.20;1.07;;;9.70;99.90;;;;;;5075434;28;20445;-72
2023/11/04 07:34:05;;;;;;;2.10;1.10;;;9.60;99.90;;;;;;5073902;28;20577;-72
2023/11/04 07:36:52;;;;;;;4.07;1.40;;;9.60;99.90;;;;;;5062575;28;20956;-71
2023/11/04 07:39:40;;;;;;;3.40;1.20;;;9.60;99.90;;;;;;5061749;28;20786;-72
2023/11/04 07:42:25;;;;;;;2.50;1.57;;;9.60;99.90;;;;;;5065174;28;20882;-72
2023/11/04 07:45:12;;;;;;;1.87;1.00;;;9.70;99.90;;;;;;5064176;28;20573;-72
2023/11/04 07:47:58;;;;;;;4.17;1.30;;;9.80;99.90;;;;;;5070028;28;20437;-72
2023/11/04 07:50:43;;;;;;;2.17;0.97;;;9.80;99.90;;;;;;5070376;28;20493;-73
2023/11/04 07:53:30;;;;;;;2.17;1.27;;;9.80;99.90;;;;;;5069633;28;20452;-72
2023/11/04 07:56:16;;;;;;;2.10;1.00;;;9.80;99.90;;;;;;5062067;28;20466;-73
2023/11/04 07:59:02;;;;;;;3.70;1.13;;;9.80;99.90;;;;;;5068358;28;20590;-74
2023/11/04 08:01:47;;;;;;;1.80;1.10;;;9.90;99.90;;;;;;5070935;28;20510;-73
2023/11/04 08:04:33;;;;;;;2.30;1.00;;;9.90;99.90;;;;;;5070322;28;20429;-73
2023/11/04 08:07:19;;;;;;;2.00;1.00;;;9.80;99.90;;;;;;5062678;28;20506;-72
2023/11/04 08:10:06;;;;;;;1.50;0.90;;;9.90;99.90;;;;;;5066739;28;20456;-73
2023/11/04 08:12:52;;;;;;;3.23;0.93;;;10.10;99.90;;;;;;5071020;28;20548;-73
2023/11/04 08:15:38;;;;;;;2.00;1.40;;;10.10;99.90;;;;;;5075944;28;20507;-73
2023/11/04 08:18:30;;;;;;;1.90;0.80;;;10.20;99.90;;;;;;5072008;28;20469;-73
2023/11/04 08:21:16;;;;;;;2.93;0.93;;;10.20;99.90;;;;;;5076492;28;20448;-73
2023/11/04 08:24:01;;;;;;;2.50;1.00;;;10.20;99.90;;;;;;5068498;28;20500;-73
2023/11/04 08:26:48;;;;;;;1.90;1.03;;;10.30;99.90;;;;;;5065571;28;20446;-73
2023/11/04 08:29:34;;;;;;;2.03;1.10;;;10.40;99.90;;;;;;5069753;28;20433;-73
2023/11/04 08:32:19;;;;;;;3.10;1.00;;;10.50;99.90;;;;;;5076647;28;20459;-73
2023/11/04 08:35:06;;;;;;;3.57;1.10;;;10.60;99.90;;;;;;5072732;28;21284;-73
2023/11/04 08:37:52;;;;;;;4.53;0.90;;;10.40;99.90;;;;;;5075678;28;20905;-73
2023/11/04 08:40:37;;;;;;;3.57;1.10;;;10.40;99.90;;;;;;5072974;28;20937;-73
2023/11/04 08:43:24;;;;;;;3.73;1.03;;;10.40;99.90;;;;;;5074189;28;20452;-72
2023/11/04 08:46:09;;;;;;;3.40;1.00;;;10.40;99.90;;;;;;5071696;28;20495;-73
2023/11/04 08:48:55;;;;;;;2.00;1.17;;;10.50;99.90;;;;;;5068445;28;20479;-73
2023/11/04 08:51:41;;;;;;;2.73;1.00;;;10.40;99.90;;;;;;5075551;28;20499;-72
2023/11/04 08:54:26;;;;;;;2.17;1.03;;;10.50;99.90;;;;;;5078396;28;21004;-74
2023/11/04 08:57:12;;;;;;;1.80;0.90;;;10.60;99.90;;;;;;5068633;28;20462;-72
2023/11/04 09:00:00;;;;;;;1.93;1.00;;;10.70;99.90;;;;;;5066808;28;20593;-73
2023/11/04 09:02:45;;;;;;;1.93;0.90;;;10.70;99.90;;;;;;5066455;28;20968;-72
2023/11/04 09:05:31;;;;;;;1.97;0.97;;;10.80;99.90;;;;;;5075741;28;20485;-73
2023/11/04 09:08:17;;;;;;;3.20;0.90;;;10.90;99.90;;;;;;5086719;28;20951;-73
2023/11/04 09:11:02;;;;;;;2.17;0.80;;;10.90;99.90;;;;;;5073619;28;20440;-73
2023/11/04 09:13:48;;;;;;;2.17;1.00;;;10.90;99.90;;;;;;5077931;28;20517;-73
2023/11/04 09:16:36;;;;;;;2.07;1.00;;;10.80;99.90;;;;;;5087260;28;20446;-73
2023/11/04 09:19:21;;;;;;;2.27;1.07;;;10.70;99.90;;;;;;5076532;28;20561;-74
2023/11/04 09:22:08;;;;;;;2.10;1.20;;;10.70;99.90;;;;;;5084160;28;20429;-73
2023/11/04 09:24:54;;;;;;;5.47;1.27;;;10.70;99.90;;;;;;5074775;28;20432;-74
2023/11/04 09:27:39;;;;;;;2.40;1.03;;;10.70;99.90;;;;;;5063501;28;21024;-74
2023/11/04 09:30:26;;;;;;;3.77;1.23;;;10.80;99.90;;;;;;5066986;28;20676;-73
2023/11/04 09:33:13;;;;;;;2.50;1.03;;;10.80;99.90;;;;;;5066708;28;20976;-74
2023/11/04 09:35:59;;;;;;;2.37;0.90;;;10.90;99.90;;;;;;5067163;28;20485;-73
2023/11/04 09:38:44;;;;;;;3.10;0.77;;;10.90;99.90;;;;;;5067137;28;20446;-73
2023/11/04 09:41:30;;;;;;;2.70;1.00;;;11.00;99.90;;;;;;5067076;28;20496;-73
2023/11/04 09:44:16;;;;;;;3.93;1.03;;;11.30;99.90;;;;;;5063846;28;20445;-73
2023/11/04 09:47:02;;;;;;;3.23;1.10;;;11.60;99.90;;;;;;5065327;28;20473;-73
2023/11/04 09:49:49;;;;;;;2.30;0.90;;;11.90;99.90;;;;;;5071579;28;20460;-73
2023/11/04 09:52:37;;;;;;;2.10;0.90;;;12.00;99.90;;;;;;5067747;28;21497;-72
2023/11/04 09:55:26;;;;;;;1.70;0.90;;;12.30;99.00;;;;;;5067496;28;20958;-73
2023/11/04 09:58:13;;;;;;;1.87;0.60;;;12.40;96.10;;;;;;5073266;28;20449;-73
2023/11/04 10:00:58;;;;;;;2.60;0.80;;;12.70;93.00;;;;;;5064066;28;20481;-73
2023/11/04 10:03:44;;;;;;;1.40;0.60;;;12.70;92.30;;;;;;5067971;28;20921;-75
2023/11/04 10:06:32;;;;;;;4.97;1.10;;;12.60;89.50;;;;;;5067951;28;20473;-73
2023/11/04 10:09:18;;;;;;;3.03;0.70;;;12.60;89.50;;;;;;5068438;28;20428;-73
2023/11/04 10:12:04;;;;;;;2.10;0.77;;;12.60;90.30;;;;;;5065691;28;20492;-73
2023/11/04 10:14:49;;;;;;;2.80;0.90;;;12.60;91.00;;;;;;5067521;28;20499;-73
2023/11/04 10:17:35;;;;;;;2.57;0.80;;;12.70;92.30;;;;;;5074417;28;20457;-72
2023/11/04 10:20:22;;;;;;;2.50;0.80;;;12.50;90.20;;;;;;5066009;28;20460;-74
2023/11/04 10:23:09;;;;;;;2.10;1.10;;;12.50;91.10;;;;;;5063428;28;20988;-73
2023/11/04 10:25:55;;;;;;;3.53;1.00;;;12.40;92.40;;;;;;5066562;28;20506;-74
2023/11/04 10:28:40;;;;;;;1.90;1.00;;;12.30;92.10;;;;;;5071541;28;20433;-73
2023/11/04 10:31:27;;;;;;;2.60;1.23;;;12.30;93.60;;;;;;5066238;28;20458;-73
2023/11/04 10:34:15;;;;;;;1.50;0.80;;;12.30;95.50;;;;;;5062259;28;20471;-73
2023/11/04 10:37:04;;;;;;;2.87;1.23;;;12.30;97.50;;;;;;5065250;28;20528;-73
2023/11/04 10:39:55;;;;;;;3.00;1.37;;;12.30;98.10;;;;;;5066938;28;21259;-73
2023/11/04 10:42:48;;;;;;;2.47;1.20;;;12.30;97.90;;;;;;5065164;28;20439;-73
2023/11/04 10:45:37;;;;;;;2.40;1.03;;;12.20;99.70;;;;;;5066714;28;20484;-74
2023/11/04 10:48:34;;;;;;;3.67;1.53;;;12.20;98.80;;;;;;5062899;28;20556;-73
2023/11/04 10:51:24;;;;;;;4.50;1.10;;;12.10;97.50;;;;;;5065083;28;20808;-73
2023/11/04 10:54:16;;;;;;;2.57;0.90;;;12.10;97.70;;;;;;5064825;28;20506;-73
2023/11/04 10:57:14;;;;;;;2.70;1.00;;;12.10;99.90;;;;;;5063139;28;20515;-73
2023/11/04 11:00:10;;;;;;;1.43;0.83;;;12.00;99.90;;;;;;5063818;28;20801;-73
2023/11/04 11:02:56;;;;;;;4.03;1.00;;;12.00;99.80;;;;;;5065742;28;20448;-73
2023/11/04 11:05:42;;;;;;;2.90;1.17;;;11.90;98.80;;;;;;5069248;28;20460;-73
2023/11/04 11:08:28;;;;;;;2.30;0.73;;;11.90;99.60;;;;;;5078964;28;20433;-74
2023/11/04 11:11:21;;;;;;;3.60;1.23;;;11.90;97.50;;;;;;5070535;28;20950;-74
2023/11/04 11:14:10;;;;;;;3.70;0.90;;;11.80;99.60;;;;;;5058576;28;20445;-75
2023/11/04 11:17:00;;;;;;;2.40;0.90;;;11.70;98.40;;;;;;5061851;28;20461;-74
2023/11/04 11:19:47;;;;;;;2.37;1.17;;;11.70;99.50;;;;;;5058333;28;20523;-74
2023/11/04 11:22:32;;;;;;;2.23;0.87;;;11.70;99.90;;;;;;5080782;28;20450;-74
2023/11/04 11:25:29;;;;;;;3.70;1.07;;;11.60;99.90;;;;;;5090413;28;20445;-72
2023/11/04 11:28:20;;;;;;;2.20;0.90;;;11.60;99.90;;;;;;5082450;28;21077;-73
2023/11/04 11:31:11;;;;;;;7.83;1.30;;;11.60;99.90;;;;;;5084891;28;20565;-74
2023/11/04 11:34:07;;;;;;;5.73;0.90;;;11.60;99.90;;;;;;5075879;28;20980;-73
2023/11/04 11:36:54;;;;;;;3.57;1.10;;;11.60;99.90;;;;;;5062760;28;20476;-73
2023/11/04 11:39:40;;;;;;;4.37;1.00;;;11.70;99.90;;;;;;5073632;28;20480;-72
2023/11/04 11:42:27;;;;;;;2.13;1.43;;;11.60;99.90;;;;;;5059293;28;20405;-74
2023/11/04 11:45:12;;;;;;;2.50;1.00;;;11.60;99.90;;;;;;5064207;28;20462;-74
2023/11/04 11:48:00;;;;;;;5.93;1.60;;;11.60;99.90;;;;;;5061293;28;20424;-74
2023/11/04 11:50:45;;;;;;;1.70;1.10;;;11.60;99.90;;;;;;5061670;28;20450;-73
2023/11/04 11:53:32;;;;;;;2.43;1.30;;;11.60;99.90;;;;;;5062565;28;20837;-74
2023/11/04 11:56:20;;;;;;;3.43;1.33;;;11.60;99.90;;;;;;5063501;28;20475;-74
2023/11/04 11:59:06;;;;;;;2.90;0.90;;;11.70;99.90;;;;;;5071154;28;20433;-74
2023/11/04 12:01:53;;;;;;;2.10;1.30;;;11.60;99.90;;;;;;5055291;28;20469;-73
2023/11/04 12:04:42;;;;;;;2.77;1.27;;;11.60;99.90;;;;;;5073703;28;20437;-73
2023/11/04 12:07:28;;;;;;;2.37;1.13;;;11.60;99.90;;;;;;5083541;28;20534;-73
2023/11/04 12:10:13;;;;;;;2.80;2.13;;;11.70;99.90;;;;;;5070557;28;21087;-72
2023/11/04 12:13:00;;;;;;;4.07;1.70;;;11.80;99.90;;;;;;5069472;28;20516;-74
2023/11/04 12:15:46;;;;;;;3.10;1.67;;;11.90;99.90;;;;;;5080936;28;20574;-74
2023/11/04 12:18:32;;;;;;;1.83;0.90;;;12.00;99.90;;;;;;5073680;28;20449;-73
2023/11/04 12:21:20;;;;;;;1.70;1.00;;;12.00;99.90;;;;;;5062663;28;20482;-74
2023/11/04 12:24:06;;;;;;;2.03;0.77;;;12.00;99.90;;;;;;5073044;28;20517;-74
2023/11/04 12:26:53;;;;;;;4.53;1.13;;;12.00;99.90;;;;;;5075322;28;20468;-74
2023/11/04 12:29:42;;;;;;;3.60;1.20;;;12.00;99.90;;;;;;5065082;28;20961;-73
2023/11/04 12:32:28;;;;;;;3.10;1.10;;;12.00;99.90;;;;;;5072757;28;20449;-73
2023/11/04 12:35:14;;;;;;;7.90;1.60;;;11.80;99.60;;;;;;5072978;28;20452;-74
2023/11/04 12:38:02;;;;;;;3.43;1.40;;;11.70;99.90;;;;;;5068954;28;20607;-74
2023/11/04 12:40:48;;;;;;;4.07;2.03;;;11.60;99.90;;;;;;5087057;28;20473;-74
2023/11/04 12:43:34;;;;;;;2.83;1.50;;;11.70;99.90;;;;;;5072268;28;21037;-73
2023/11/04 12:46:21;;;;;;;18.73;1.90;;;11.70;99.90;;;;;;5059824;28;20457;-74
2023/11/04 12:49:07;;;;;;;4.53;1.60;;;11.80;99.90;;;;;;5064392;28;20426;-73
2023/11/04 12:51:53;;;;;;;2.20;1.40;;;11.80;99.90;;;;;;5056804;28;20561;-73
2023/11/04 12:54:46;;;;;;;2.90;1.47;;;11.80;99.90;;;;;;5073279;28;20508;-73
2023/11/04 12:57:33;;;;;;;3.00;1.17;;;11.80;99.90;;;;;;5073213;28;20824;-74
2023/11/04 13:00:18;;;;;;;9.80;1.93;;;11.70;99.50;;;;;;5078724;28;20429;-73
2023/11/04 13:03:04;;;;;;;5.57;1.60;;;11.70;99.90;;;;;;5069108;28;20424;-73
2023/11/04 13:05:50;;;;;;;2.80;1.30;;;11.60;99.90;;;;;;5061262;28;21013;-74
2023/11/04 13:08:36;;;;;;;2.93;1.80;;;11.60;99.90;;;;;;5070647;28;20548;-73
2023/11/04 13:11:24;;;;;;;2.70;1.27;;;11.60;99.90;;;;;;5073430;28;20450;-73
2023/11/04 13:14:10;;;;;;;2.70;1.60;;;11.50;99.90;;;;;;5071784;28;20504;-74
2023/11/04 13:16:57;;;;;;;2.50;1.40;;;11.40;99.90;;;;;;5070710;28;20488;-73
2023/11/04 13:19:42;;;;;;;2.40;1.40;;;11.40;99.90;;;;;;5074818;28;20451;-73
2023/11/04 13:22:28;;;;;;;3.73;1.53;;;11.20;99.90;;;;;;5083242;28;20481;-74
2023/11/04 13:25:14;;;;;;;2.23;1.57;;;11.20;99.90;;;;;;5084444;28;20443;-73
2023/11/04 13:28:01;;;;;;;2.30;1.57;;;11.10;99.90;;;;;;5073917;28;20952;-74
2023/11/04 13:30:46;;;;;;;3.13;1.70;;;11.10;99.90;;;;;;5066855;28;20820;-74
2023/11/04 13:33:32;;;;;;;3.00;1.50;;;11.00;99.90;;;;;;5060935;28;20461;-74
2023/11/04 13:36:18;;;;;;;4.23;1.57;;;10.90;99.90;;;;;;5065050;28;20565;-73
2023/11/04 13:39:06;;;;;;;3.13;1.30;;;10.80;99.90;;;;;;5067185;28;20514;-73
2023/11/04 13:41:51;;;;;;;2.33;1.40;;;10.80;99.90;;;;;;5071870;28;20838;-73
2023/11/04 13:44:38;;;;;;;2.30;1.53;;;10.80;99.90;;;;;;5065414;28;20793;-73
2023/11/04 13:47:24;;;;;;;4.67;1.37;;;10.70;99.90;;;;;;5071390;28;20874;-73
2023/11/04 13:50:10;;;;;;;2.00;1.20;;;10.70;99.90;;;;;;5074578;28;20488;-73
2023/11/04 13:52:56;;;;;;;2.13;1.13;;;10.70;99.90;;;;;;5072913;28;20994;-73
2023/11/04 13:55:44;;;;;;;2.00;1.30;;;10.60;99.90;;;;;;5082540;28;20542;-72
2023/11/04 13:58:30;;;;;;;3.00;1.10;;;10.70;99.90;;;;;;5079736;28;20536;-73
2023/11/04 14:01:17;;;;;;;3.87;1.20;;;10.60;99.90;;;;;;5077048;28;20473;-73
2023/11/04 14:04:03;;;;;;;1.50;0.93;;;10.60;99.90;;;;;;5064746;28;20446;-73
2023/11/04 14:06:49;;;;;;;4.70;1.30;;;10.60;99.90;;;;;;5060876;28;20472;-73
2023/11/04 14:09:35;;;;;;;1.90;0.87;;;10.50;99.90;;;;;;5073108;28;21820;-73
2023/11/04 14:12:21;;;;;;;2.23;1.10;;;10.40;99.90;;;;;;5073389;28;20449;-73
2023/11/04 14:15:07;;;;;;;2.00;0.90;;;10.40;99.90;;;;;;5067358;28;20445;-73
2023/11/04 14:17:55;;;;;;;1.67;0.90;;;10.40;99.90;;;;;;5064668;28;20551;-73
2023/11/04 14:20:41;;;;;;;3.30;2.00;;;10.40;99.90;;;;;;5065807;28;20446;-73
2023/11/04 14:23:26;;;;;;;2.00;1.03;;;10.40;99.90;;;;;;5062007;28;20465;-74
2023/11/04 14:26:12;;;;;;;1.97;0.90;;;10.40;99.90;;;;;;5070997;28;20498;-74
2023/11/04 14:28:58;;;;;;;1.60;0.80;;;10.30;99.90;;;;;;5076638;28;20522;-72
2023/11/04 14:31:43;;;;;;;2.37;1.10;;;10.30;99.90;;;;;;5077516;28;20473;-73
2023/11/04 14:34:30;;;;;;;1.70;1.13;;;10.30;99.90;;;;;;5062026;28;20481;-74